createdAt,value
2018-11-23T00:00:11.529Z,29.83
2018-11-23T00:02:40.722Z,29.63
2018-11-23T00:05:09.538Z,30.17
2018-11-23T00:07:38.106Z,31.53
2018-11-23T00:10:08.193Z,30.43
2018-11-23T00:12:37.319Z,29.07
2018-11-23T00:15:07.283Z,27.80
2018-11-23T00:17:36.587Z,29.87
2018-11-23T00:20:08.023Z,30.83
2018-11-23T00:22:36.327Z,28.27
2018-11-23T00:25:05.324Z,27.53
2018-11-23T00:27:33.590Z,31.20
2018-11-23T00:30:01.951Z,30.10
2018-11-23T00:32:30.708Z,31.83
2018-11-23T00:34:59.646Z,31.23
2018-11-23T00:37:27.904Z,32.40
2018-11-23T00:39:56.230Z,29.70
2018-11-23T00:42:24.662Z,30.07
2018-11-23T00:44:53.187Z,29.57
2018-11-23T00:47:22.027Z,30.90
2018-11-23T00:49:50.780Z,31.67
2018-11-23T00:52:20.247Z,29.63
2018-11-23T00:54:48.515Z,31.10
2018-11-23T00:57:16.779Z,32.17
2018-11-23T00:59:45.094Z,32.80
2018-11-23T01:02:13.334Z,31.67
2018-11-23T01:04:41.979Z,31.97
2018-11-23T01:07:10.291Z,32.80
2018-11-23T01:09:38.678Z,34.30
2018-11-23T01:12:07.016Z,30.33
2018-11-23T01:14:35.351Z,30.83
2018-11-23T01:17:03.764Z,32.87
2018-11-23T01:19:32.490Z,31.13
2018-11-23T01:22:01.231Z,30.57
2018-11-23T01:24:30.012Z,32.03
2018-11-23T01:26:58.301Z,31.43
2018-11-23T01:29:26.563Z,32.10
2018-11-23T01:31:55.298Z,35.30
2018-11-23T01:34:23.987Z,31.50
2018-11-23T01:36:52.278Z,32.07
2018-11-23T01:39:20.563Z,30.10
2018-11-23T01:41:48.895Z,30.50
2018-11-23T01:44:17.195Z,34.43
2018-11-23T01:46:45.604Z,32.10
2018-11-23T01:49:14.753Z,32.80
2018-11-23T01:51:43.496Z,32.07
2018-11-23T01:54:11.833Z,34.80
2018-11-23T01:56:40.166Z,34.47
2018-11-23T01:59:08.475Z,31.77
2018-11-23T02:01:36.820Z,30.47
2018-11-23T02:04:05.588Z,31.10
2018-11-23T02:06:33.823Z,31.60
2018-11-23T02:09:02.126Z,29.97
2018-11-23T02:11:30.964Z,30.07
2018-11-23T02:13:59.194Z,31.17
2018-11-23T02:16:27.422Z,30.17
2018-11-23T02:18:56.333Z,31.50
2018-11-23T02:21:25.297Z,30.50
2018-11-23T02:23:53.642Z,29.57
2018-11-23T02:26:21.912Z,29.77
2018-11-23T02:28:50.365Z,30.67
2018-11-23T02:31:22.827Z,30.73
2018-11-23T02:33:52.038Z,34.63
2018-11-23T02:36:20.291Z,29.10
2018-11-23T02:38:48.609Z,29.07
2018-11-23T02:41:17.274Z,29.93
2018-11-23T02:43:45.527Z,30.60
2018-11-23T02:46:13.922Z,26.03
2018-11-23T02:48:42.704Z,26.80
2018-11-23T02:51:11.429Z,28.60
2018-11-23T02:53:39.923Z,29.57
2018-11-23T02:56:08.539Z,27.20
2018-11-23T02:58:36.868Z,30.90
2018-11-23T03:01:05.135Z,27.47
2018-11-23T03:03:33.826Z,31.23
2018-11-23T03:06:02.056Z,29.37
2018-11-23T03:08:30.301Z,29.80
2018-11-23T03:10:58.551Z,29.93
2018-11-23T03:13:27.142Z,30.97
2018-11-23T03:15:55.441Z,29.47
2018-11-23T03:18:24.412Z,32.63
2018-11-23T03:20:52.663Z,27.33
2018-11-23T03:23:20.939Z,31.67
2018-11-23T03:25:49.256Z,27.17
2018-11-23T03:28:18.228Z,27.50
2018-11-23T03:30:46.493Z,31.07
2018-11-23T03:33:15.100Z,27.83
2018-11-23T03:35:43.983Z,28.57
2018-11-23T03:38:12.259Z,30.10
2018-11-23T03:40:40.570Z,30.03
2018-11-23T03:43:08.923Z,29.50
2018-11-23T03:45:37.219Z,31.77
2018-11-23T03:48:06.012Z,33.10
2018-11-23T03:50:34.991Z,34.73
2018-11-23T03:53:03.812Z,31.70
2018-11-23T03:55:32.062Z,31.03
2018-11-23T03:58:00.390Z,34.37
2018-11-23T04:00:28.694Z,30.47
2018-11-23T04:02:57.799Z,31.13
2018-11-23T04:05:26.579Z,31.17
2018-11-23T04:07:54.879Z,30.53
2018-11-23T04:10:23.151Z,33.30
2018-11-23T04:12:51.427Z,32.23
2018-11-23T04:15:19.682Z,31.40
2018-11-23T04:17:48.516Z,33.10
2018-11-23T04:20:17.530Z,31.03
2018-11-23T04:22:45.843Z,30.50
2018-11-23T04:25:15.028Z,31.53
2018-11-23T04:27:43.517Z,33.30
2018-11-23T04:30:13.615Z,33.40
2018-11-23T04:32:42.319Z,32.67
2018-11-23T04:35:13.217Z,30.90
2018-11-23T04:37:41.890Z,32.97
2018-11-23T04:40:11.111Z,28.93
2018-11-23T04:42:39.623Z,29.27
2018-11-23T04:45:08.177Z,28.73
2018-11-23T04:47:37.482Z,28.20
2018-11-23T04:50:07.296Z,28.33
2018-11-23T04:52:35.611Z,30.60
2018-11-23T04:55:04.682Z,26.70
2018-11-23T04:57:32.967Z,29.60
2018-11-23T05:00:01.839Z,28.03
2018-11-23T05:02:30.256Z,31.13
2018-11-23T05:04:58.948Z,29.13
2018-11-23T05:07:27.415Z,28.33
2018-11-23T05:09:56.621Z,28.63
2018-11-23T05:12:25.282Z,30.27
2018-11-23T05:14:55.977Z,27.23
2018-11-23T05:17:24.431Z,30.23
2018-11-23T05:19:53.190Z,30.23
2018-11-23T05:22:21.533Z,26.83
2018-11-23T05:24:49.873Z,28.73
2018-11-23T05:27:18.281Z,29.13
2018-11-23T05:29:46.600Z,29.60
2018-11-23T05:32:15.159Z,28.70
2018-11-23T05:34:44.592Z,26.80
2018-11-23T05:37:13.031Z,29.57
2018-11-23T05:39:42.332Z,32.07
2018-11-23T05:42:10.719Z,29.47
2018-11-23T05:44:39.127Z,30.73
2018-11-23T05:47:08.144Z,30.10
2018-11-23T05:49:36.506Z,27.50
2018-11-23T05:52:05.097Z,29.97
2018-11-23T05:54:33.843Z,28.10
2018-11-23T05:57:02.171Z,32.23
2018-11-23T05:59:30.734Z,30.10
2018-11-23T06:01:59.019Z,28.17
2018-11-23T06:04:27.670Z,29.20
2018-11-23T06:06:55.989Z,29.07
2018-11-23T06:09:24.324Z,29.70
2018-11-23T06:11:52.659Z,33.87
2018-11-23T06:14:21.824Z,31.33
2018-11-23T06:16:50.110Z,32.53
2018-11-23T06:19:18.794Z,32.07
2018-11-23T06:21:47.063Z,30.70
2018-11-23T06:24:15.334Z,32.67
2018-11-23T06:26:43.631Z,32.57
2018-11-23T06:29:11.937Z,33.93
2018-11-23T06:31:40.873Z,31.67
2018-11-23T06:34:09.688Z,34.73
2018-11-23T06:36:38.022Z,31.83
2018-11-23T06:39:08.474Z,33.10
2018-11-23T06:41:36.859Z,37.90
2018-11-23T06:44:05.512Z,34.87
2018-11-23T06:46:34.066Z,35.27
2018-11-23T06:49:02.703Z,36.20
2018-11-23T06:51:31.278Z,33.37
2018-11-23T06:54:00.127Z,36.60
2018-11-23T06:56:28.404Z,37.67
2018-11-23T06:58:56.698Z,34.83
2018-11-23T07:01:25.526Z,34.50
2018-11-23T07:03:54.248Z,35.73
2018-11-23T07:06:22.542Z,35.43
2018-11-23T07:08:52.528Z,35.17
2018-11-23T07:11:19.427Z,33.77
2018-11-23T07:13:47.695Z,36.33
2018-11-23T07:16:16.047Z,41.73
2018-11-23T07:18:44.738Z,39.10
2018-11-23T07:21:13.034Z,36.17
2018-11-23T07:23:41.317Z,33.17
2018-11-23T07:26:09.668Z,35.37
2018-11-23T07:28:37.967Z,38.33
2018-11-23T07:31:06.615Z,36.80
2018-11-23T07:33:35.938Z,35.00
2018-11-23T07:36:04.335Z,34.77
2018-11-23T07:38:32.639Z,36.60
2018-11-23T07:41:12.082Z,32.70
2018-11-23T07:43:40.430Z,35.63
2018-11-23T07:46:08.758Z,33.17
2018-11-23T07:48:37.379Z,33.67
2018-11-23T07:51:06.294Z,32.63
2018-11-23T07:53:34.920Z,33.07
2018-11-23T07:56:03.182Z,31.53
2018-11-23T07:58:31.942Z,33.77
2018-11-23T08:01:00.221Z,35.63
2018-11-23T08:03:28.892Z,32.77
2018-11-23T08:05:57.163Z,32.67
2018-11-23T08:08:25.445Z,35.70
2018-11-23T08:10:52.974Z,33.67
2018-11-23T08:13:21.308Z,32.13
2018-11-23T08:15:50.058Z,31.77
2018-11-23T08:18:18.762Z,31.10
2018-11-23T08:20:47.056Z,30.80
2018-11-23T08:23:16.646Z,31.17
2018-11-23T08:25:45.998Z,32.17
2018-11-23T08:28:14.395Z,36.23
2018-11-23T08:30:43.069Z,33.07
2018-11-23T08:33:11.730Z,30.63
2018-11-23T08:35:40.363Z,28.73
2018-11-23T08:38:08.703Z,35.00
2018-11-23T08:40:36.998Z,33.33
2018-11-23T08:43:05.431Z,30.80
2018-11-23T08:45:34.014Z,32.10
2018-11-23T08:48:02.750Z,33.57
2018-11-23T08:50:31.419Z,31.43
2018-11-23T08:53:00.094Z,32.07
2018-11-23T08:55:28.522Z,32.93
2018-11-23T08:57:56.969Z,33.57
2018-11-23T09:00:26.467Z,34.03
2018-11-23T09:03:00.449Z,34.30
2018-11-23T09:05:29.267Z,35.47
2018-11-23T09:07:57.986Z,35.73
2018-11-23T09:10:27.696Z,34.73
2018-11-23T09:12:58.656Z,37.20
2018-11-23T09:15:27.306Z,32.07
2018-11-23T09:17:56.246Z,35.50
2018-11-23T09:20:24.535Z,35.80
2018-11-23T09:22:53.375Z,35.83
2018-11-23T09:25:22.556Z,32.97
2018-11-23T09:27:51.213Z,33.63
2018-11-23T09:30:20.732Z,35.47
2018-11-23T09:32:49.968Z,35.77
2018-11-23T09:35:19.268Z,33.07
2018-11-23T09:37:48.176Z,33.40
2018-11-23T09:40:18.764Z,32.23
2018-11-23T09:42:47.473Z,34.27
2018-11-23T09:45:17.459Z,34.97
2018-11-23T09:47:46.514Z,32.83
2018-11-23T09:50:16.280Z,33.47
2018-11-23T09:52:46.083Z,30.73
2018-11-23T09:55:14.563Z,33.90
2018-11-23T09:57:42.898Z,34.23
2018-11-23T10:00:13.213Z,34.07
2018-11-23T10:02:41.766Z,33.20
2018-11-23T10:05:11.408Z,32.97
2018-11-23T10:07:39.834Z,34.47
2018-11-23T10:10:09.594Z,33.60
2018-11-23T10:12:37.918Z,36.13
2018-11-23T10:15:07.433Z,33.90
2018-11-23T10:17:36.133Z,31.90
2018-11-23T10:20:06.456Z,31.27
2018-11-23T10:22:35.243Z,28.43
2018-11-23T10:25:03.663Z,32.03
2018-11-23T10:27:33.198Z,30.33
2018-11-23T10:30:02.786Z,33.10
2018-11-23T10:32:31.593Z,31.60
2018-11-23T10:35:02.426Z,30.77
2018-11-23T10:37:30.914Z,32.83
2018-11-23T10:39:59.438Z,32.90
2018-11-23T10:42:27.760Z,32.77
2018-11-23T10:44:56.278Z,32.13
2018-11-23T10:47:25.007Z,32.27
2018-11-23T10:49:55.222Z,32.17
2018-11-23T10:52:24.072Z,31.27
2018-11-23T10:54:52.902Z,27.73
2018-11-23T10:57:21.256Z,32.40
2018-11-23T10:59:49.579Z,31.30
2018-11-23T11:02:24.401Z,31.30
2018-11-23T11:04:57.726Z,28.07
2018-11-23T11:07:26.499Z,31.47
2018-11-23T11:09:55.217Z,29.40
2018-11-23T11:12:23.604Z,30.30
2018-11-23T11:14:52.160Z,30.13
2018-11-23T11:17:21.556Z,30.80
2018-11-23T11:19:50.464Z,28.07
2018-11-23T11:22:19.954Z,31.27
2018-11-23T11:24:48.231Z,30.07
2018-11-23T11:27:16.509Z,28.30
2018-11-23T11:29:45.463Z,29.93
2018-11-23T11:32:14.125Z,28.40
2018-11-23T11:34:42.916Z,26.20
2018-11-23T11:37:11.808Z,29.27
2018-11-23T11:39:40.638Z,28.27
2018-11-23T11:42:09.801Z,28.37
2018-11-23T11:44:38.162Z,27.30
2018-11-23T11:47:06.529Z,28.30
2018-11-23T11:49:34.841Z,28.37
2018-11-23T11:52:03.731Z,27.37
2018-11-23T11:54:32.493Z,26.23
2018-11-23T11:57:00.798Z,29.73
2018-11-23T11:59:29.123Z,27.30
2018-11-23T12:01:57.446Z,29.67
2018-11-23T12:04:26.314Z,30.83
2018-11-23T12:06:55.201Z,29.70
2018-11-23T12:09:23.535Z,26.33
2018-11-23T12:11:51.879Z,27.43
2018-11-23T12:14:20.619Z,26.03
2018-11-23T12:16:48.940Z,26.63
2018-11-23T12:19:17.804Z,27.00
2018-11-23T12:21:47.183Z,24.87
2018-11-23T12:24:15.615Z,28.20
2018-11-23T12:26:43.915Z,24.97
2018-11-23T12:29:12.243Z,26.30
2018-11-23T12:31:41.391Z,26.47
2018-11-23T12:34:10.240Z,26.70
2018-11-23T12:36:38.903Z,26.60
2018-11-23T12:39:08.072Z,31.50
2018-11-23T12:41:36.507Z,28.57
2018-11-23T12:44:04.924Z,31.00
2018-11-23T12:46:33.291Z,29.20
2018-11-23T12:49:01.843Z,28.93
2018-11-23T12:51:30.246Z,25.93
2018-11-23T12:54:00.167Z,27.00
2018-11-23T12:56:28.442Z,28.10
2018-11-23T12:58:56.866Z,27.20
2018-11-23T13:01:25.471Z,29.07
2018-11-23T13:03:55.290Z,26.73
2018-11-23T13:06:23.993Z,26.70
2018-11-23T13:08:53.072Z,28.23
2018-11-23T13:13:49.244Z,28.07
2018-11-23T13:16:18.714Z,25.77
2018-11-23T13:18:47.480Z,25.13
2018-11-23T13:21:16.303Z,26.10
2018-11-23T13:23:45.787Z,30.17
2018-11-23T13:26:14.363Z,26.40
2018-11-23T13:28:43.205Z,29.03
2018-11-23T13:31:11.585Z,26.03
2018-11-23T13:33:40.455Z,28.93
2018-11-23T13:36:09.574Z,26.40
2018-11-23T13:38:38.009Z,24.27
2018-11-23T13:41:06.550Z,28.07
2018-11-23T13:43:34.900Z,24.57
2018-11-23T13:46:03.594Z,24.33
2018-11-23T13:48:31.951Z,25.77
2018-11-23T13:51:00.252Z,23.63
2018-11-23T13:53:29.085Z,25.17
2018-11-23T13:55:57.442Z,23.77
2018-11-23T13:58:25.749Z,22.80
2018-11-23T14:00:54.031Z,24.97
2018-11-23T14:03:22.896Z,26.03
2018-11-23T14:05:51.239Z,25.17
2018-11-23T14:08:19.903Z,25.13
2018-11-23T14:10:49.278Z,25.73
2018-11-23T14:13:17.632Z,23.80
2018-11-23T14:15:47.071Z,24.27
2018-11-23T14:18:15.790Z,24.83
2018-11-23T14:20:44.117Z,27.23
2018-11-23T14:23:12.878Z,28.17
2018-11-23T14:25:41.241Z,25.77
2018-11-23T14:28:09.646Z,24.60
2018-11-23T14:30:37.987Z,22.87
2018-11-23T14:33:06.831Z,24.80
2018-11-23T14:35:36.012Z,24.20
2018-11-23T14:38:04.543Z,25.07
2018-11-23T14:40:32.927Z,23.40
2018-11-23T14:43:01.375Z,23.97
2018-11-23T14:45:32.452Z,23.13
2018-11-23T14:48:02.483Z,21.80
2018-11-23T14:50:31.906Z,23.83
2018-11-23T14:53:01.124Z,23.63
2018-11-23T14:55:29.724Z,25.27
2018-11-23T14:57:58.653Z,25.83
2018-11-23T15:00:29.339Z,26.00
2018-11-23T15:02:59.446Z,25.27
2018-11-23T15:05:28.175Z,24.37
2018-11-23T15:07:56.544Z,23.37
2018-11-23T15:10:26.407Z,23.47
2018-11-23T15:12:56.540Z,22.63
2018-11-23T15:15:26.798Z,23.47
2018-11-23T15:17:56.193Z,23.33
2018-11-23T15:20:26.262Z,22.67
2018-11-23T15:22:57.575Z,24.33
2018-11-23T15:25:26.011Z,24.00
2018-11-23T15:27:54.390Z,23.77
2018-11-23T15:30:31.110Z,25.03
2018-11-23T15:33:00.301Z,24.60
2018-11-23T15:35:30.423Z,23.80
2018-11-23T15:37:58.833Z,24.90
2018-11-23T15:40:28.288Z,26.90
2018-11-23T15:42:58.923Z,25.90
2018-11-23T15:45:28.164Z,24.87
2018-11-23T15:47:56.857Z,24.10
2018-11-23T15:50:26.642Z,24.23
2018-11-23T15:52:55.641Z,24.83
2018-11-23T15:55:27.626Z,24.77
2018-11-23T15:57:57.998Z,26.00
2018-11-23T16:00:31.537Z,26.40
2018-11-23T16:03:00.293Z,25.17
2018-11-23T16:05:29.103Z,29.63
2018-11-23T16:07:58.844Z,30.73
2018-11-23T16:10:29.398Z,25.27
2018-11-23T16:12:59.267Z,30.00
2018-11-23T16:15:28.334Z,25.03
2018-11-23T16:17:57.689Z,24.47
2018-11-23T16:20:28.481Z,26.20
2018-11-23T16:22:58.637Z,24.30
2018-11-23T16:25:26.962Z,25.63
2018-11-23T16:27:56.779Z,26.37
2018-11-23T16:30:27.478Z,26.30
2018-11-23T16:32:57.310Z,26.17
2018-11-23T16:35:28.267Z,27.00
2018-11-23T16:37:57.539Z,27.63
2018-11-23T16:40:28.162Z,27.63
2018-11-23T16:42:57.471Z,26.27
2018-11-23T16:45:27.150Z,28.40
2018-11-23T16:47:56.803Z,27.77
2018-11-23T16:50:25.428Z,27.20
2018-11-23T16:52:54.227Z,25.87
2018-11-23T16:55:22.907Z,27.37
2018-11-23T16:57:53.031Z,24.83
2018-11-23T17:00:22.986Z,25.00
2018-11-23T17:02:51.434Z,26.30
2018-11-23T17:05:21.877Z,29.20
2018-11-23T17:07:50.354Z,28.13
2018-11-23T17:10:19.154Z,25.27
2018-11-23T17:12:47.617Z,25.40
2018-11-23T17:15:17.630Z,25.90
2018-11-23T17:17:46.761Z,29.47
2018-11-23T17:20:16.254Z,29.30
2018-11-23T17:22:46.251Z,25.33
2018-11-23T17:25:15.991Z,25.60
2018-11-23T17:27:44.612Z,25.63
2018-11-23T17:30:14.641Z,25.73
2018-11-23T17:32:43.530Z,24.87
2018-11-23T17:35:12.765Z,27.73
2018-11-23T17:37:41.839Z,25.10
2018-11-23T17:40:12.397Z,25.13
2018-11-23T17:42:41.646Z,29.00
2018-11-23T17:45:16.851Z,28.97
2018-11-23T17:47:46.106Z,27.63
2018-11-23T17:50:16.941Z,25.77
2018-11-23T17:52:46.412Z,26.77
2018-11-23T17:55:15.620Z,25.17
2018-11-23T17:57:44.530Z,26.87
2018-11-23T18:00:15.232Z,29.13
2018-11-23T18:02:44.018Z,28.43
2018-11-23T18:05:13.642Z,28.23
2018-11-23T18:07:41.923Z,28.90
2018-11-23T18:10:12.794Z,26.93
2018-11-23T18:12:41.440Z,26.50
2018-11-23T18:15:15.279Z,26.93
2018-11-23T18:17:44.834Z,27.33
2018-11-23T18:20:14.408Z,29.17
2018-11-23T18:22:43.656Z,27.47
2018-11-23T18:25:15.428Z,30.20
2018-11-23T18:30:27.479Z,27.60
2018-11-23T18:32:56.187Z,27.50
2018-11-23T18:35:25.211Z,28.73
2018-11-23T18:37:53.470Z,25.17
2018-11-23T18:40:21.742Z,29.90
2018-11-23T18:42:50.106Z,40.90
2018-11-23T18:45:18.378Z,30.37
2018-11-23T18:47:46.722Z,27.70
2018-11-23T18:50:17.126Z,30.03
2018-11-23T18:52:45.884Z,29.50
2018-11-23T18:55:18.085Z,29.70
2018-11-23T18:57:43.017Z,30.67
2018-11-23T19:00:13.408Z,32.63
2018-11-23T19:02:42.334Z,29.40
2018-11-23T19:05:19.166Z,29.50
2018-11-23T19:07:47.720Z,28.37
2018-11-23T19:10:16.077Z,27.20
2018-11-23T19:12:44.431Z,30.77
2018-11-23T19:15:15.313Z,26.43
2018-11-23T19:17:44.281Z,32.00
2018-11-23T19:20:27.868Z,32.03
2018-11-23T19:22:56.530Z,31.20
2018-11-23T19:25:24.897Z,30.50
2018-11-23T19:27:53.643Z,27.20
2018-11-23T19:30:28.038Z,28.83
2018-11-23T19:32:51.839Z,28.73
2018-11-23T19:35:20.507Z,27.80
2018-11-23T19:37:48.863Z,28.03
2018-11-23T19:40:17.889Z,31.33
2018-11-23T19:42:46.703Z,26.80
2018-11-23T19:45:16.649Z,32.53
2018-11-23T19:47:45.162Z,30.07
2018-11-23T19:50:16.548Z,28.43
2018-11-23T19:52:45.484Z,32.77
2018-11-23T19:55:14.733Z,32.30
2018-11-23T19:57:43.053Z,30.13
2018-11-23T20:00:16.643Z,32.93
2018-11-23T20:02:44.974Z,28.27
2018-11-23T20:05:13.665Z,28.50
2018-11-23T20:07:41.952Z,28.73
2018-11-23T20:10:11.874Z,30.17
2018-11-23T20:12:40.926Z,26.93
2018-11-23T20:15:11.577Z,26.10
2018-11-23T20:17:41.511Z,27.23
2018-11-23T20:20:10.463Z,24.20
2018-11-23T20:22:39.055Z,23.67
2018-11-23T20:25:09.235Z,23.87
2018-11-23T20:27:37.622Z,23.83
2018-11-23T20:30:10.202Z,24.77
2018-11-23T20:32:38.919Z,21.73
2018-11-23T20:35:08.998Z,24.33
2018-11-23T20:37:37.323Z,21.80
2018-11-23T20:40:08.353Z,22.77
2018-11-23T20:42:36.707Z,21.77
2018-11-23T20:45:06.430Z,21.20
2018-11-23T20:47:34.892Z,20.20
2018-11-23T20:50:03.244Z,21.03
2018-11-23T20:52:31.595Z,22.27
2018-11-23T20:55:00.427Z,19.43
2018-11-23T20:57:28.706Z,20.60
2018-11-23T20:59:57.736Z,20.87
2018-11-23T21:02:25.998Z,22.20
2018-11-23T21:04:54.731Z,23.00
2018-11-23T21:07:23.060Z,25.33
2018-11-23T21:09:51.807Z,24.07
2018-11-23T21:12:20.146Z,22.50
2018-11-23T21:14:49.098Z,21.53
2018-11-23T21:17:17.399Z,23.40
2018-11-23T21:19:46.196Z,22.90
2018-11-23T21:22:14.742Z,21.23
2018-11-23T21:24:43.068Z,22.03
2018-11-23T21:27:11.370Z,21.70
2018-11-23T21:29:39.692Z,21.97
2018-11-23T21:32:08.593Z,23.30
2018-11-23T21:34:38.156Z,18.87
2018-11-23T21:37:06.654Z,18.23
2018-11-23T21:39:34.962Z,19.63
2018-11-23T21:42:03.294Z,19.43
2018-11-23T21:44:31.592Z,17.60
2018-11-23T21:47:00.013Z,20.60
2018-11-23T21:49:28.396Z,17.80
2018-11-23T21:51:57.294Z,18.80
2018-11-23T21:54:25.858Z,17.80
2018-11-23T21:56:54.422Z,16.67
2018-11-23T21:59:23.797Z,17.50
2018-11-23T22:01:52.571Z,15.47
2018-11-23T22:04:21.515Z,17.87
2018-11-23T22:06:49.893Z,17.07
2018-11-23T22:09:18.227Z,17.87
2018-11-23T22:11:52.370Z,20.10
2018-11-23T22:14:14.846Z,21.87
2018-11-23T22:16:43.467Z,21.07
2018-11-23T22:19:12.313Z,20.33
2018-11-23T22:21:40.722Z,20.50
2018-11-23T22:24:09.047Z,21.50
2018-11-23T22:26:37.330Z,24.23
2018-11-23T22:29:05.745Z,21.60
2018-11-23T22:31:34.151Z,21.00
2018-11-23T22:34:02.750Z,23.50
2018-11-23T22:36:31.043Z,22.77
2018-11-23T22:38:59.299Z,21.33
2018-11-23T22:41:28.830Z,20.43
2018-11-23T22:43:57.562Z,20.87
2018-11-23T22:46:25.850Z,21.93
2018-11-23T22:48:54.214Z,19.73
2018-11-23T22:51:22.899Z,19.97
2018-11-23T22:53:51.719Z,20.43
2018-11-23T22:56:20.545Z,21.00
2018-11-23T22:58:51.506Z,21.20
2018-11-23T23:01:17.172Z,21.93
2018-11-23T23:03:46.103Z,19.40
2018-11-23T23:06:14.466Z,21.57
2018-11-23T23:08:42.759Z,17.97
2018-11-23T23:11:11.087Z,19.73
2018-11-23T23:13:39.482Z,19.90
2018-11-23T23:16:08.251Z,17.93
2018-11-23T23:18:37.048Z,18.17
2018-11-23T23:21:05.506Z,18.23
2018-11-23T23:23:34.098Z,19.87
2018-11-23T23:26:02.496Z,18.90
2018-11-23T23:28:30.763Z,18.00
2018-11-23T23:30:59.068Z,15.80
2018-11-23T23:33:27.694Z,15.67
2018-11-23T23:35:56.268Z,17.70
2018-11-23T23:38:24.576Z,15.20
2018-11-23T23:40:53.806Z,15.10
2018-11-23T23:43:22.558Z,15.17
2018-11-23T23:45:51.146Z,14.50
2018-11-23T23:48:19.491Z,14.73
2018-11-23T23:50:47.801Z,13.00
2018-11-23T23:53:16.324Z,13.50
2018-11-23T23:55:45.071Z,12.97
2018-11-23T23:58:13.444Z,13.87
